Time;durP1;ratioP1;P1;durP2;ratioP2;P2;SDS_P1;SDS_P2;PMS_P1;PMS_P2;Temp;Humidity;BMP_temperature;BMP_pressure;BME280_temperature;BME280_humidity;BME280_pressure;Samples;Min_cycle;Max_cycle;Signal;HPM_P1;HPM_P2
2021/03/18 00:02:08;;;;;;;7.85;2.90;;;4.70;67.20;;;;;;5054238;28;20040;-62
2021/03/18 00:04:36;;;;;;;8.05;2.70;;;4.60;68.00;;;;;;5053098;28;20033;-62
2021/03/18 00:07:02;;;;;;;6.55;2.30;;;4.60;67.90;;;;;;5070844;28;20037;-62
2021/03/18 00:09:29;;;;;;;11.80;3.25;;;4.60;68.20;;;;;;5071520;28;20049;-62
2021/03/18 00:11:55;;;;;;;11.90;3.53;;;4.60;68.30;;;;;;5068682;28;20044;-62
2021/03/18 00:14:24;;;;;;;8.90;2.80;;;4.70;68.80;;;;;;5049639;28;20044;-62
2021/03/18 00:16:50;;;;;;;11.32;3.33;;;4.70;68.70;;;;;;5070461;28;20047;-62
2021/03/18 00:19:19;;;;;;;12.60;4.18;;;4.70;68.90;;;;;;5070650;28;20040;-62
2021/03/18 00:21:47;;;;;;;10.90;3.50;;;4.70;69.50;;;;;;5070154;28;20610;-62
2021/03/18 00:24:14;;;;;;;9.68;2.88;;;4.70;69.40;;;;;;5056329;28;20395;-62
2021/03/18 00:26:41;;;;;;;14.50;3.53;;;4.70;69.70;;;;;;5083789;28;20482;-62
2021/03/18 00:29:07;;;;;;;10.60;3.42;;;4.60;69.50;;;;;;5071942;28;20048;-63
2021/03/18 00:31:52;;;;;;;10.80;3.28;;;4.60;69.60;;;;;;5067698;28;20051;-62
2021/03/18 00:34:19;;;;;;;12.73;4.28;;;4.60;69.80;;;;;;5071007;28;20040;-62
2021/03/18 00:36:46;;;;;;;10.60;3.92;;;4.60;70.20;;;;;;5077149;28;20496;-62
2021/03/18 00:39:12;;;;;;;11.60;3.25;;;4.60;69.90;;;;;;5076973;28;20036;-63
2021/03/18 00:41:39;;;;;;;11.00;3.67;;;4.60;69.70;;;;;;5070598;28;20045;-62
2021/03/18 00:44:06;;;;;;;9.63;3.75;;;4.60;70.00;;;;;;5046915;28;20057;-62
2021/03/18 00:46:33;;;;;;;10.95;3.50;;;4.50;70.20;;;;;;5048381;28;20033;-62
2021/03/18 00:49:00;;;;;;;9.90;3.30;;;4.50;70.20;;;;;;5033809;28;20538;-62
2021/03/18 00:51:26;;;;;;;8.52;3.47;;;4.50;70.00;;;;;;5015975;28;20043;-62
2021/03/18 00:53:54;;;;;;;9.95;3.53;;;4.50;70.00;;;;;;5037865;28;20044;-62
2021/03/18 00:56:23;;;;;;;10.98;4.03;;;4.50;70.40;;;;;;5039653;28;20040;-62
2021/03/18 00:58:57;;;;;;;12.77;3.38;;;4.50;70.20;;;;;;5032114;28;20049;-62
2021/03/18 01:01:26;;;;;;;12.27;3.25;;;4.50;70.00;;;;;;5049911;28;20041;-62
2021/03/18 01:03:54;;;;;;;11.32;3.95;;;4.50;70.00;;;;;;5049446;28;20037;-62
2021/03/18 01:06:24;;;;;;;9.68;3.50;;;4.50;70.30;;;;;;5051003;28;20080;-62
2021/03/18 01:08:53;;;;;;;10.23;3.58;;;4.40;70.20;;;;;;5032627;28;20415;-62
2021/03/18 01:11:24;;;;;;;8.45;3.60;;;4.40;70.60;;;;;;5049860;28;20523;-62
2021/03/18 01:13:55;;;;;;;9.73;3.17;;;4.40;70.90;;;;;;5055042;28;20718;-62
2021/03/18 01:16:24;;;;;;;12.75;3.72;;;4.40;70.70;;;;;;5058143;28;20060;-62
2021/03/18 01:18:54;;;;;;;8.68;3.38;;;4.40;71.20;;;;;;5042821;28;20358;-62
2021/03/18 01:21:27;;;;;;;11.05;3.25;;;4.40;71.00;;;;;;5047988;28;20040;-62
2021/03/18 01:23:53;;;;;;;10.05;3.88;;;4.40;71.20;;;;;;5044470;28;20516;-62
2021/03/18 01:26:20;;;;;;;9.50;3.63;;;4.40;71.30;;;;;;5051370;28;20060;-62
2021/03/18 01:28:47;;;;;;;11.48;3.42;;;4.40;71.30;;;;;;5048937;28;20480;-62
2021/03/18 01:31:14;;;;;;;12.07;4.05;;;4.30;71.30;;;;;;5046004;28;20043;-62
2021/03/18 01:33:42;;;;;;;9.80;3.40;;;4.40;71.80;;;;;;5031582;28;20055;-62
2021/03/18 01:36:13;;;;;;;9.07;3.45;;;4.30;71.90;;;;;;5032502;28;20072;-62
2021/03/18 01:38:41;;;;;;;10.55;3.67;;;4.30;72.00;;;;;;5050072;28;20045;-62
2021/03/18 01:41:07;;;;;;;9.80;3.25;;;4.30;72.00;;;;;;5031382;28;20531;-62
2021/03/18 01:43:34;;;;;;;10.52;4.07;;;4.30;72.10;;;;;;5064293;28;20098;-62
2021/03/18 01:46:00;;;;;;;11.73;3.88;;;4.30;72.10;;;;;;5066227;28;20050;-62
2021/03/18 01:48:29;;;;;;;16.00;4.95;;;4.20;72.10;;;;;;5069305;28;20101;-62
2021/03/18 01:50:57;;;;;;;15.20;4.57;;;4.20;71.90;;;;;;5053045;28;20056;-62
2021/03/18 01:53:25;;;;;;;10.98;3.92;;;4.10;71.60;;;;;;5078558;28;20378;-62
2021/03/18 01:55:54;;;;;;;12.38;4.00;;;4.10;72.00;;;;;;5048880;28;20060;-62
2021/03/18 01:58:21;;;;;;;11.10;4.13;;;4.10;72.40;;;;;;5061468;28;20040;-62
2021/03/18 02:00:57;;;;;;;10.35;4.20;;;4.00;72.10;;;;;;5070679;28;20036;-62
2021/03/18 02:03:26;;;;;;;11.05;3.80;;;4.00;73.60;;;;;;5050863;28;20663;-61
2021/03/18 02:05:54;;;;;;;12.50;4.25;;;4.10;73.30;;;;;;5057894;28;20037;-62
2021/03/18 02:08:20;;;;;;;14.57;5.25;;;4.10;73.70;;;;;;5051569;28;20028;-62
2021/03/18 02:10:47;;;;;;;12.13;4.10;;;4.00;73.00;;;;;;5046649;28;20134;-62
2021/03/18 02:13:15;;;;;;;12.23;4.13;;;4.00;73.40;;;;;;5066978;28;20044;-62
2021/03/18 02:15:49;;;;;;;13.30;4.55;;;4.00;74.00;;;;;;5069008;28;20093;-61
2021/03/18 02:18:28;;;;;;;12.48;4.05;;;4.00;73.60;;;;;;5068477;28;20842;-62
2021/03/18 02:21:00;;;;;;;12.25;4.38;;;4.00;73.20;;;;;;5051286;28;20452;-62
2021/03/18 02:24:05;;;;;;;13.93;5.03;;;4.00;73.60;;;;;;5068744;28;20086;-62
2021/03/18 02:26:38;;;;;;;13.65;4.82;;;4.00;73.60;;;;;;5059225;28;20051;-62
2021/03/18 02:29:45;;;;;;;7.82;3.95;;;4.10;73.60;;;;;;5068289;28;20128;-62
2021/03/18 02:32:33;;;;;;;11.65;4.07;;;4.00;73.50;;;;;;5069666;28;20064;-62
2021/03/18 02:35:31;;;;;;;9.68;3.50;;;4.00;73.50;;;;;;5067424;28;20122;-62
2021/03/18 02:38:04;;;;;;;14.85;4.00;;;4.00;73.70;;;;;;5050036;28;20519;-62
2021/03/18 02:40:40;;;;;;;10.57;3.50;;;4.00;73.80;;;;;;5062831;28;20048;-62
2021/03/18 02:43:13;;;;;;;12.10;3.72;;;4.00;74.10;;;;;;5069086;28;20044;-62
2021/03/18 02:45:47;;;;;;;;;;;4.00;73.60;;;;;;5058714;28;20047;-62
2021/03/18 02:48:28;;;;;;;9.40;3.30;;;3.90;74.60;;;;;;5050677;28;19928;-62
2021/03/18 02:50:56;;;;;;;12.55;4.38;;;3.80;74.00;;;;;;5075805;28;20053;-62
2021/03/18 02:53:29;;;;;;;9.27;3.45;;;3.80;74.10;;;;;;5050222;28;20777;-62
2021/03/18 02:55:59;;;;;;;12.40;3.67;;;3.80;74.10;;;;;;5051196;28;20106;-62
2021/03/18 02:58:28;;;;;;;10.95;4.20;;;3.70;74.10;;;;;;5069328;28;20051;-62
2021/03/18 03:00:56;;;;;;;8.32;3.22;;;3.70;75.20;;;;;;5049114;28;20384;-62
2021/03/18 03:03:40;;;;;;;9.93;3.60;;;3.70;75.10;;;;;;5069106;28;20046;-62
2021/03/18 03:06:11;;;;;;;11.73;3.97;;;3.70;74.80;;;;;;5069723;28;20135;-62
2021/03/18 03:08:39;;;;;;;13.07;3.67;;;3.70;74.70;;;;;;5068888;28;20043;-62
2021/03/18 03:11:07;;;;;;;11.07;3.72;;;3.70;75.20;;;;;;5050613;28;20480;-63
2021/03/18 03:13:39;;;;;;;10.15;4.05;;;3.60;75.40;;;;;;5066353;28;20041;-62
2021/03/18 03:16:10;;;;;;;8.73;3.40;;;3.60;75.10;;;;;;5069260;28;20044;-62
2021/03/18 03:18:38;;;;;;;9.57;3.78;;;3.70;75.30;;;;;;5056177;28;20772;-62
2021/03/18 03:21:06;;;;;;;9.10;3.60;;;3.70;75.10;;;;;;5071276;28;20044;-62
2021/03/18 03:23:34;;;;;;;12.80;3.95;;;3.60;74.90;;;;;;5072554;28;20090;-62
2021/03/18 03:26:03;;;;;;;13.40;3.42;;;3.60;75.00;;;;;;5056220;28;20044;-62
2021/03/18 03:28:31;;;;;;;12.52;4.65;;;3.60;76.40;;;;;;5055248;28;20040;-62
2021/03/18 03:30:58;;;;;;;15.52;4.82;;;3.60;76.40;;;;;;5027728;28;20052;-62
2021/03/18 03:33:26;;;;;;;11.00;3.72;;;3.60;75.70;;;;;;5071389;28;20044;-62
2021/03/18 03:35:52;;;;;;;15.52;4.15;;;3.60;76.50;;;;;;5043951;28;20041;-62
2021/03/18 03:38:19;;;;;;;16.42;5.55;;;3.50;76.20;;;;;;5072785;28;20040;-62
2021/03/18 03:40:46;;;;;;;14.85;4.47;;;3.50;76.90;;;;;;5072709;28;20033;-62
2021/03/18 03:43:14;;;;;;;13.40;4.65;;;3.40;77.20;;;;;;5073176;28;20573;-62
2021/03/18 03:45:41;;;;;;;18.88;5.30;;;3.40;77.30;;;;;;5071556;28;20118;-62
2021/03/18 03:48:08;;;;;;;13.93;4.32;;;3.30;77.60;;;;;;5083989;28;20049;-62
2021/03/18 03:50:37;;;;;;;14.85;4.65;;;3.30;78.40;;;;;;5072511;28;20500;-62
2021/03/18 03:53:13;;;;;;;15.05;5.28;;;3.30;78.70;;;;;;5045024;28;20089;-62
2021/03/18 03:55:52;;;;;;;15.30;4.68;;;3.20;78.90;;;;;;5072274;28;20052;-62
2021/03/18 03:58:30;;;;;;;13.52;5.32;;;3.20;80.40;;;;;;5072792;28;20040;-62
2021/03/18 04:01:00;;;;;;;15.48;5.22;;;3.20;80.50;;;;;;5053041;28;20507;-62
2021/03/18 04:03:29;;;;;;;13.57;3.90;;;3.20;80.10;;;;;;5072445;28;20046;-62
2021/03/18 04:05:58;;;;;;;14.32;4.88;;;3.20;79.40;;;;;;5073136;28;20036;-62
2021/03/18 04:08:27;;;;;;;17.65;5.38;;;3.20;79.70;;;;;;5068961;28;20487;-62
2021/03/18 04:10:58;;;;;;;11.50;4.22;;;3.20;79.90;;;;;;5069773;28;20051;-62
2021/03/18 04:13:27;;;;;;;15.52;5.28;;;3.20;80.10;;;;;;5049658;28;20098;-62
2021/03/18 04:15:57;;;;;;;18.13;5.72;;;3.20;80.80;;;;;;5078155;28;20043;-62
2021/03/18 04:18:29;;;;;;;17.52;5.38;;;3.20;81.20;;;;;;5069209;28;20044;-62
2021/03/18 04:20:59;;;;;;;14.05;5.10;;;3.20;81.10;;;;;;5070077;28;20044;-62
2021/03/18 04:23:28;;;;;;;15.23;5.25;;;3.10;81.20;;;;;;5071454;28;20098;-62
2021/03/18 04:25:58;;;;;;;20.48;5.80;;;3.10;81.50;;;;;;5072271;28;20047;-62
2021/03/18 04:28:32;;;;;;;14.50;4.30;;;3.10;82.10;;;;;;5037799;28;20041;-62
2021/03/18 04:31:00;;;;;;;14.63;5.25;;;3.10;82.20;;;;;;5055202;28;20495;-62
2021/03/18 04:33:28;;;;;;;14.35;5.40;;;3.10;82.20;;;;;;5072666;28;20053;-62
2021/03/18 04:35:57;;;;;;;10.35;4.15;;;3.10;81.10;;;;;;5063022;28;20053;-62
2021/03/18 04:38:26;;;;;;;16.70;4.88;;;3.00;82.50;;;;;;5071358;28;20048;-62
2021/03/18 04:40:56;;;;;;;16.08;5.82;;;3.10;82.80;;;;;;5073095;28;20127;-62
2021/03/18 04:43:24;;;;;;;19.08;6.00;;;3.10;82.70;;;;;;5070941;28;20406;-62
2021/03/18 04:45:53;;;;;;;13.93;5.43;;;3.10;82.50;;;;;;5075894;28;20096;-63
2021/03/18 04:48:21;;;;;;;16.85;5.43;;;3.10;83.30;;;;;;5070549;28;20053;-61
2021/03/18 04:50:48;;;;;;;14.63;5.40;;;3.10;82.30;;;;;;5062560;28;20554;-62
2021/03/18 04:53:18;;;;;;;9.57;3.85;;;3.10;81.90;;;;;;5064600;28;20048;-63
2021/03/18 04:55:45;;;;;;;15.27;5.00;;;3.10;82.10;;;;;;5052596;28;20048;-62
2021/03/18 04:58:12;;;;;;;17.13;6.43;;;3.10;82.40;;;;;;5069438;28;20387;-62
2021/03/18 05:00:40;;;;;;;20.63;7.13;;;3.10;82.60;;;;;;5059515;28;20496;-62
2021/03/18 05:03:08;;;;;;;23.70;7.35;;;3.10;82.80;;;;;;5045755;28;20048;-62
2021/03/18 05:05:36;;;;;;;18.90;7.07;;;3.10;83.70;;;;;;5071150;28;21974;-62
2021/03/18 05:08:03;;;;;;;20.85;7.97;;;3.10;83.10;;;;;;5057815;28;20447;-62
2021/03/18 05:10:35;;;;;;;20.75;6.97;;;3.10;83.20;;;;;;5051846;28;20048;-62
2021/03/18 05:13:05;;;;;;;24.50;7.72;;;3.10;83.20;;;;;;5055856;28;20541;-62
2021/03/18 05:15:32;;;;;;;16.60;6.90;;;3.10;83.80;;;;;;5075622;28;20545;-62
2021/03/18 05:17:59;;;;;;;20.40;6.63;;;3.10;84.10;;;;;;5069013;28;20052;-62
2021/03/18 05:20:26;;;;;;;20.30;6.47;;;3.10;84.30;;;;;;5035843;28;20127;-62
2021/03/18 05:22:53;;;;;;;19.38;7.07;;;3.20;83.60;;;;;;5070299;28;20808;-62
2021/03/18 05:25:23;;;;;;;21.55;8.25;;;3.20;83.20;;;;;;5051564;28;20045;-62
2021/03/18 05:27:50;;;;;;;24.15;8.63;;;3.20;83.20;;;;;;5067409;28;20052;-62
2021/03/18 05:30:18;;;;;;;21.60;8.48;;;3.20;82.80;;;;;;5048286;28;20048;-62
2021/03/18 05:32:45;;;;;;;26.27;9.60;;;3.20;83.40;;;;;;5071561;28;20041;-62
2021/03/18 05:35:28;;;;;;;27.00;8.07;;;3.20;83.40;;;;;;5070779;28;20058;-62
2021/03/18 05:37:55;;;;;;;25.08;8.70;;;3.20;83.80;;;;;;5067201;28;20040;-62
2021/03/18 05:40:22;;;;;;;19.92;7.40;;;3.30;84.30;;;;;;5069864;28;20044;-62
2021/03/18 05:42:49;;;;;;;18.20;7.68;;;3.30;84.00;;;;;;5079623;28;20058;-62
2021/03/18 05:45:17;;;;;;;14.57;6.72;;;3.30;83.50;;;;;;5058574;28;20060;-62
2021/03/18 05:47:44;;;;;;;16.52;6.72;;;3.30;82.50;;;;;;5049358;28;20063;-62
2021/03/18 05:50:18;;;;;;;18.52;7.97;;;3.40;82.20;;;;;;5045009;28;20048;-62
2021/03/18 05:52:48;;;;;;;23.77;8.50;;;3.50;83.10;;;;;;5071184;28;20048;-62
2021/03/18 05:55:16;;;;;;;18.15;7.65;;;3.50;82.80;;;;;;5070392;28;20047;-62
2021/03/18 05:57:47;;;;;;;19.02;7.72;;;3.50;81.90;;;;;;5052520;28;20052;-62
2021/03/18 06:00:14;;;;;;;18.23;7.80;;;3.60;81.50;;;;;;5065912;28;20036;-62
2021/03/18 06:02:42;;;;;;;18.95;6.53;;;3.60;81.00;;;;;;5049615;28;20049;-62
2021/03/18 06:05:14;;;;;;;17.52;5.90;;;3.70;81.00;;;;;;5074862;28;20714;-62
2021/03/18 06:07:44;;;;;;;14.40;5.65;;;3.70;80.80;;;;;;5067279;28;20033;-62
2021/03/18 06:10:19;;;;;;;18.88;7.07;;;3.70;80.60;;;;;;5064317;28;20083;-62
2021/03/18 06:12:48;;;;;;;16.33;5.55;;;3.80;81.20;;;;;;5060185;28;20044;-62
2021/03/18 06:15:15;;;;;;;20.00;6.10;;;3.90;80.70;;;;;;5055688;28;20041;-62
2021/03/18 06:17:42;;;;;;;21.15;6.70;;;4.00;80.60;;;;;;5067241;28;20045;-62
2021/03/18 06:20:15;;;;;;;17.63;6.45;;;4.00;80.30;;;;;;5067876;28;20396;-62
2021/03/18 06:22:47;;;;;;;17.00;6.35;;;4.10;80.10;;;;;;5042102;28;20503;-62
2021/03/18 06:25:33;;;;;;;19.42;6.53;;;4.20;79.70;;;;;;5069582;28;20029;-62
2021/03/18 06:28:13;;;;;;;22.00;5.85;;;4.20;79.20;;;;;;5052251;28;20041;-62
2021/03/18 06:30:41;;;;;;;17.23;5.32;;;4.30;78.60;;;;;;5066367;28;20135;-62
2021/03/18 06:33:18;;;;;;;18.88;6.45;;;4.40;78.10;;;;;;5065948;28;20052;-62
2021/03/18 06:35:46;;;;;;;15.68;6.00;;;4.40;77.30;;;;;;5068509;28;20048;-63
2021/03/18 06:38:13;;;;;;;15.80;6.18;;;4.50;78.50;;;;;;5066908;28;20093;-62
2021/03/18 06:40:44;;;;;;;18.10;6.25;;;4.60;77.80;;;;;;5073001;28;20435;-62
2021/03/18 06:43:12;;;;;;;20.13;5.70;;;4.60;77.70;;;;;;5043872;28;20052;-63
2021/03/18 06:45:41;;;;;;;12.57;5.07;;;4.70;77.20;;;;;;5067494;28;20063;-62
2021/03/18 06:48:10;;;;;;;19.02;6.25;;;4.80;76.50;;;;;;5037452;28;20155;-63
2021/03/18 06:50:45;;;;;;;17.13;6.32;;;4.90;76.80;;;;;;5069396;28;20040;-62
2021/03/18 06:53:28;;;;;;;17.90;6.90;;;5.00;77.30;;;;;;5055412;28;20043;-63
2021/03/18 06:55:59;;;;;;;15.65;5.93;;;5.10;77.00;;;;;;5071676;28;20040;-62
2021/03/18 06:58:28;;;;;;;17.10;6.03;;;5.20;76.50;;;;;;5058923;28;20045;-62
2021/03/18 07:01:00;;;;;;;13.70;5.82;;;5.30;75.70;;;;;;5054077;28;20052;-62
2021/03/18 07:03:39;;;;;;;16.83;5.72;;;5.40;75.40;;;;;;5071556;28;20515;-62
2021/03/18 07:06:08;;;;;;;16.92;6.15;;;5.50;74.40;;;;;;5056660;28;20055;-63
2021/03/18 07:08:40;;;;;;;13.35;5.18;;;5.50;74.00;;;;;;5071632;28;20399;-63
2021/03/18 07:11:21;;;;;;;16.58;5.43;;;5.60;73.00;;;;;;5076186;28;20044;-63
2021/03/18 07:13:49;;;;;;;17.02;5.57;;;5.70;73.00;;;;;;5048643;28;20391;-63
2021/03/18 07:16:17;;;;;;;14.90;5.53;;;5.70;72.40;;;;;;5074483;28;20048;-63
2021/03/18 07:18:58;;;;;;;16.50;6.40;;;5.80;72.10;;;;;;5053197;28;20128;-63
2021/03/18 07:21:39;;;;;;;15.35;5.88;;;5.90;71.60;;;;;;5073410;28;20036;-62
2021/03/18 07:24:36;;;;;;;15.15;5.82;;;5.90;71.40;;;;;;5059625;28;20111;-63
2021/03/18 07:27:15;;;;;;;19.13;6.22;;;6.00;71.60;;;;;;5063870;28;20056;-63
2021/03/18 07:29:44;;;;;;;14.93;5.30;;;6.00;70.80;;;;;;5051930;28;20045;-62
2021/03/18 07:32:11;;;;;;;16.70;5.82;;;6.10;70.80;;;;;;5075637;28;20867;-63
2021/03/18 07:34:42;;;;;;;19.35;6.65;;;6.20;71.20;;;;;;5075823;28;20032;-62
2021/03/18 07:37:12;;;;;;;17.90;6.93;;;6.30;71.20;;;;;;5075185;28;20135;-63
2021/03/18 07:39:41;;;;;;;16.10;6.85;;;6.30;70.70;;;;;;5073928;28;20058;-62
2021/03/18 07:42:08;;;;;;;22.10;6.70;;;6.40;70.10;;;;;;5056210;28;20059;-63
2021/03/18 07:44:36;;;;;;;26.67;7.60;;;6.50;69.90;;;;;;5056906;28;20044;-63
2021/03/18 07:47:04;;;;;;;16.85;6.53;;;6.50;69.10;;;;;;5074916;28;20040;-63
2021/03/18 07:49:45;;;;;;;15.70;5.72;;;6.50;69.70;;;;;;5080679;28;20838;-62
2021/03/18 07:52:18;;;;;;;15.20;5.43;;;6.70;68.70;;;;;;5075032;28;20373;-63
2021/03/18 07:54:47;;;;;;;14.48;5.10;;;6.70;68.50;;;;;;5074491;28;20044;-63
2021/03/18 07:57:15;;;;;;;15.77;5.63;;;6.80;67.30;;;;;;5075174;28;20562;-64
2021/03/18 07:59:43;;;;;;;14.93;6.00;;;6.90;68.50;;;;;;5076377;28;20044;-63
2021/03/18 08:02:22;;;;;;;16.25;5.70;;;7.00;67.10;;;;;;5074569;28;20052;-62
2021/03/18 08:04:54;;;;;;;18.23;6.18;;;7.10;67.50;;;;;;5058746;28;20121;-62
2021/03/18 08:07:45;;;;;;;17.42;5.25;;;7.10;66.60;;;;;;5057538;28;20043;-63
2021/03/18 08:10:14;;;;;;;14.07;5.50;;;7.20;66.10;;;;;;5074551;28;20495;-63
2021/03/18 08:12:54;;;;;;;15.35;5.40;;;7.30;65.30;;;;;;5055138;28;20036;-63
2021/03/18 08:15:24;;;;;;;15.95;5.57;;;7.30;64.80;;;;;;5049413;28;20060;-62
2021/03/18 08:17:52;;;;;;;15.45;5.97;;;7.30;65.90;;;;;;5081717;28;20143;-63
2021/03/18 08:20:38;;;;;;;18.25;6.28;;;7.30;64.50;;;;;;5068009;28;20412;-62
2021/03/18 08:23:26;;;;;;;14.98;5.70;;;7.30;65.00;;;;;;5050618;28;20041;-63
2021/03/18 08:25:52;;;;;;;15.73;5.47;;;7.30;65.10;;;;;;5056727;28;20464;-62
2021/03/18 08:28:40;;;;;;;15.73;5.88;;;7.40;63.80;;;;;;5053165;28;20369;-63
2021/03/18 08:31:15;;;;;;;15.43;5.57;;;7.40;64.50;;;;;;5071033;28;20586;-62
2021/03/18 08:33:49;;;;;;;14.23;5.50;;;7.50;63.90;;;;;;5052942;28;20044;-63
2021/03/18 08:36:29;;;;;;;15.70;5.65;;;7.60;63.80;;;;;;5052410;28;20044;-63
2021/03/18 08:39:33;;;;;;;13.45;4.82;;;7.60;64.40;;;;;;5066878;28;20082;-63
2021/03/18 08:42:01;;;;;;;12.48;3.78;;;7.70;63.10;;;;;;5055186;28;20080;-62
2021/03/18 08:44:31;;;;;;;13.88;5.78;;;7.70;62.30;;;;;;5054450;28;20386;-63
2021/03/18 08:47:03;;;;;;;12.35;5.30;;;7.80;63.10;;;;;;5071642;28;20048;-63
2021/03/18 08:49:30;;;;;;;13.18;5.07;;;7.80;63.00;;;;;;5066386;28;20104;-63
2021/03/18 08:51:59;;;;;;;14.70;5.20;;;7.90;63.00;;;;;;5070696;28;20049;-63
2021/03/18 08:54:40;;;;;;;15.52;5.15;;;8.00;61.60;;;;;;5071644;28;20376;-63
2021/03/18 08:57:29;;;;;;;12.68;5.35;;;8.10;62.20;;;;;;5071398;28;20049;-63
2021/03/18 09:00:04;;;;;;;15.55;5.13;;;8.10;62.50;;;;;;5057293;28;20131;-63
2021/03/18 09:02:34;;;;;;;13.75;4.32;;;8.20;62.60;;;;;;5053852;28;20080;-63
2021/03/18 09:05:19;;;;;;;18.33;5.75;;;7.90;60.40;;;;;;5065771;28;20044;-63
2021/03/18 09:07:52;;;;;;;12.10;4.72;;;8.00;61.50;;;;;;5055797;28;20045;-63
2021/03/18 09:10:32;;;;;;;11.35;3.95;;;8.10;62.20;;;;;;5071309;28;20127;-63
2021/03/18 09:13:19;;;;;;;9.68;3.63;;;8.20;60.70;;;;;;5060776;28;20060;-63
2021/03/18 09:15:48;;;;;;;9.55;3.95;;;8.20;59.70;;;;;;5068620;28;20545;-63
2021/03/18 09:18:23;;;;;;;8.38;3.15;;;8.30;59.30;;;;;;5071895;28;20037;-63
2021/03/18 09:21:01;;;;;;;9.38;3.72;;;8.30;59.00;;;;;;5053869;28;20057;-63
2021/03/18 09:23:31;;;;;;;9.60;3.40;;;8.30;59.00;;;;;;5071624;28;20051;-63
2021/03/18 09:26:01;;;;;;;7.60;3.42;;;8.30;59.60;;;;;;5065081;28;20036;-63
2021/03/18 09:28:36;;;;;;;9.57;3.25;;;8.30;58.70;;;;;;5055374;28;20060;-63
2021/03/18 09:31:03;;;;;;;7.88;3.03;;;8.20;58.80;;;;;;5072100;28;20041;-63
2021/03/18 09:33:35;;;;;;;10.50;4.20;;;8.20;58.70;;;;;;5046562;28;20427;-63
2021/03/18 09:36:18;;;;;;;10.15;3.17;;;8.30;58.10;;;;;;5052182;28;20052;-63
2021/03/18 09:39:09;;;;;;;9.00;3.55;;;8.30;58.70;;;;;;5053793;28;20044;-63
2021/03/18 09:41:40;;;;;;;6.78;3.00;;;8.30;57.90;;;;;;5055228;28;20048;-63
2021/03/18 09:44:06;;;;;;;8.60;3.42;;;8.40;58.00;;;;;;5069767;28;20037;-63
2021/03/18 09:46:34;;;;;;;10.55;3.38;;;8.40;58.50;;;;;;5048567;28;20048;-63
2021/03/18 09:49:01;;;;;;;7.22;3.10;;;8.40;58.00;;;;;;5068061;28;20857;-63
2021/03/18 09:51:28;;;;;;;11.43;3.60;;;8.40;58.70;;;;;;5063316;28;20037;-63
2021/03/18 09:54:01;;;;;;;9.40;3.80;;;8.40;57.60;;;;;;5063740;28;20439;-62
2021/03/18 09:56:35;;;;;;;8.25;3.22;;;8.50;58.40;;;;;;5059839;28;20051;-63
2021/03/18 09:59:04;;;;;;;9.23;3.10;;;8.60;56.90;;;;;;5033810;28;20048;-63
2021/03/18 10:01:31;;;;;;;8.07;2.60;;;8.70;56.80;;;;;;5060830;28;20048;-63
2021/03/18 10:04:14;;;;;;;7.90;3.03;;;8.70;56.90;;;;;;5050466;28;20052;-63
2021/03/18 10:06:51;;;;;;;7.15;2.65;;;8.80;56.70;;;;;;5061862;28;20040;-63
2021/03/18 10:09:36;;;;;;;8.82;2.70;;;8.90;56.30;;;;;;5059952;28;20060;-63
2021/03/18 10:12:05;;;;;;;8.85;2.35;;;9.00;56.70;;;;;;5061349;28;20072;-62
2021/03/18 10:14:33;;;;;;;6.18;2.10;;;9.10;56.00;;;;;;5065073;28;20044;-62
2021/03/18 10:17:11;;;;;;;8.32;2.92;;;9.10;54.90;;;;;;5066148;28;20102;-63
2021/03/18 10:19:48;;;;;;;6.20;2.25;;;9.10;55.30;;;;;;5060440;28;20120;-63
2021/03/18 10:22:15;;;;;;;5.47;2.00;;;9.10;54.00;;;;;;5059999;28;20475;-62
2021/03/18 10:24:42;;;;;;;5.10;1.85;;;9.00;54.40;;;;;;5063529;28;20514;-63
2021/03/18 10:27:14;;;;;;;5.63;2.13;;;8.90;53.70;;;;;;5063073;28;20586;-63
2021/03/18 10:29:42;;;;;;;4.68;1.85;;;8.90;54.60;;;;;;5066931;28;20048;-62
2021/03/18 10:32:11;;;;;;;5.28;1.83;;;8.80;54.30;;;;;;5070992;28;20098;-63
2021/03/18 10:34:39;;;;;;;4.82;1.45;;;8.70;53.80;;;;;;5066005;28;20044;-63
2021/03/18 10:37:48;;;;;;;5.47;2.13;;;8.70;54.90;;;;;;5053486;28;20049;-63
2021/03/18 10:40:23;;;;;;;4.32;1.55;;;8.70;53.90;;;;;;5034494;28;20514;-63
2021/03/18 10:42:52;;;;;;;3.72;1.70;;;8.60;53.70;;;;;;5064760;28;20505;-63
2021/03/18 10:45:33;;;;;;;3.58;1.70;;;8.60;53.80;;;;;;5034158;28;20164;-62
2021/03/18 10:48:06;;;;;;;4.22;2.00;;;8.60;53.80;;;;;;5064976;28;20044;-62
2021/03/18 10:50:35;;;;;;;8.40;1.80;;;8.60;53.80;;;;;;5054262;28;20040;-63
2021/03/18 10:53:10;;;;;;;5.32;2.00;;;8.60;54.80;;;;;;5062622;28;20044;-62
2021/03/18 10:55:50;;;;;;;4.72;1.95;;;8.60;54.80;;;;;;5063789;28;20060;-62
2021/03/18 10:58:24;;;;;;;3.28;1.55;;;8.70;53.90;;;;;;5041995;28;20044;-63
2021/03/18 11:01:00;;;;;;;5.50;1.95;;;8.70;52.80;;;;;;5060517;28;20124;-63
2021/03/18 11:03:32;;;;;;;6.25;1.70;;;8.70;54.20;;;;;;5060907;28;20503;-62
2021/03/18 11:06:00;;;;;;;7.25;2.72;;;8.80;54.60;;;;;;5064389;28;20061;-63
2021/03/18 11:08:32;;;;;;;7.90;2.38;;;8.90;54.90;;;;;;5044141;28;20045;-63
2021/03/18 11:11:10;;;;;;;6.45;2.15;;;8.90;53.60;;;;;;5042262;28;20048;-64
2021/03/18 11:13:42;;;;;;;6.47;2.05;;;9.00;53.80;;;;;;5051579;28;20150;-67
2021/03/18 11:16:25;;;;;;;5.70;2.03;;;9.00;52.50;;;;;;5035981;28;20592;-65
2021/03/18 11:18:57;;;;;;;7.82;2.65;;;9.10;53.70;;;;;;5065916;28;20465;-63
2021/03/18 11:21:36;;;;;;;6.60;2.80;;;9.10;53.70;;;;;;5061091;28;20503;-64
2021/03/18 11:24:07;;;;;;;7.22;2.83;;;9.10;53.70;;;;;;5042506;28;20052;-64
2021/03/18 11:26:35;;;;;;;7.07;2.72;;;9.20;53.70;;;;;;5061677;28;20464;-63
2021/03/18 11:29:11;;;;;;;6.07;2.72;;;9.30;53.60;;;;;;5070625;28;20044;-63
2021/03/18 11:31:52;;;;;;;6.28;1.90;;;9.40;52.90;;;;;;5040916;28;20055;-63
2021/03/18 11:34:43;;;;;;;7.60;2.72;;;9.50;52.40;;;;;;5054674;28;20099;-63
2021/03/18 11:37:12;;;;;;;7.53;2.35;;;9.50;51.00;;;;;;5041588;28;20057;-62
2021/03/18 11:39:39;;;;;;;6.95;2.50;;;9.50;52.80;;;;;;5062127;28;20385;-62
2021/03/18 11:42:06;;;;;;;5.93;2.10;;;9.60;52.30;;;;;;5066555;28;20139;-62
2021/03/18 11:44:33;;;;;;;10.00;3.55;;;9.50;51.70;;;;;;5060840;28;20595;-62
2021/03/18 11:47:00;;;;;;;10.68;3.38;;;9.40;53.90;;;;;;5064248;28;20487;-62
2021/03/18 11:49:27;;;;;;;8.23;2.53;;;9.50;53.50;;;;;;5067867;28;20104;-62
2021/03/18 11:51:54;;;;;;;7.10;3.10;;;9.40;52.60;;;;;;5051350;28;20048;-62
2021/03/18 11:54:20;;;;;;;7.80;2.60;;;9.40;52.80;;;;;;5046318;28;20191;-62
2021/03/18 11:56:47;;;;;;;8.70;2.72;;;9.30;52.70;;;;;;5053416;28;20044;-62
2021/03/18 11:59:13;;;;;;;9.90;3.25;;;9.10;52.30;;;;;;5046931;28;20135;-62
2021/03/18 12:01:40;;;;;;;8.55;3.80;;;8.80;52.70;;;;;;5054005;28;20044;-62
2021/03/18 12:04:07;;;;;;;7.97;2.83;;;8.80;52.70;;;;;;5075360;28;20083;-62
2021/03/18 12:06:34;;;;;;;7.95;2.92;;;8.70;53.80;;;;;;5064615;28;20036;-62
2021/03/18 12:09:01;;;;;;;6.07;2.47;;;8.70;53.90;;;;;;5060527;28;20048;-62
2021/03/18 12:11:28;;;;;;;9.13;2.90;;;8.70;53.00;;;;;;5059062;28;20055;-63
2021/03/18 12:13:54;;;;;;;8.73;2.83;;;8.70;53.30;;;;;;5061582;28;20048;-61
2021/03/18 12:16:20;;;;;;;7.18;2.95;;;8.70;53.40;;;;;;5059634;28;20067;-62
2021/03/18 12:18:47;;;;;;;11.00;3.00;;;8.60;53.00;;;;;;5065215;28;20472;-62
2021/03/18 12:21:14;;;;;;;8.32;3.03;;;8.60;53.70;;;;;;5049447;28;20427;-62
2021/03/18 12:23:40;;;;;;;9.75;3.50;;;8.60;54.80;;;;;;5064874;28;20054;-63
2021/03/18 12:26:07;;;;;;;8.77;3.63;;;8.50;53.60;;;;;;5067948;28;20046;-62
2021/03/18 12:28:33;;;;;;;9.35;3.72;;;8.30;53.60;;;;;;5061960;28;20059;-61
2021/03/18 12:31:00;;;;;;;8.18;3.20;;;8.20;54.10;;;;;;5065073;28;20049;-62
2021/03/18 12:33:26;;;;;;;9.85;3.47;;;8.20;54.80;;;;;;5073042;28;20052;-63
2021/03/18 12:35:53;;;;;;;11.50;3.63;;;8.20;54.00;;;;;;5061696;28;20419;-66
2021/03/18 12:38:22;;;;;;;13.25;5.13;;;8.20;54.70;;;;;;5049571;28;20041;-67
2021/03/18 12:40:53;;;;;;;12.05;4.90;;;8.20;54.20;;;;;;5041509;28;20060;-66
2021/03/18 12:43:20;;;;;;;12.07;4.15;;;8.20;54.20;;;;;;5033764;28;20053;-65
2021/03/18 12:45:47;;;;;;;10.45;4.13;;;8.20;55.40;;;;;;5028230;28;20041;-66
2021/03/18 12:48:14;;;;;;;8.63;3.50;;;8.30;55.40;;;;;;5045282;28;20380;-65
2021/03/18 12:50:41;;;;;;;10.75;3.42;;;8.30;54.90;;;;;;5025932;28;20151;-66
2021/03/18 12:53:08;;;;;;;8.05;3.25;;;8.40;55.30;;;;;;5041864;28;20040;-65
2021/03/18 12:55:36;;;;;;;12.77;4.07;;;8.40;54.80;;;;;;5049416;28;20037;-65
2021/03/18 12:58:02;;;;;;;11.75;4.00;;;8.50;55.70;;;;;;5047437;28;20056;-63
2021/03/18 13:00:32;;;;;;;8.52;3.28;;;8.40;55.30;;;;;;5026229;28;20041;-64
2021/03/18 13:02:59;;;;;;;7.03;3.45;;;8.50;55.30;;;;;;5028602;28;20057;-65
2021/03/18 13:05:26;;;;;;;9.23;3.65;;;8.50;54.00;;;;;;5028649;28;20057;-65
2021/03/18 13:07:53;;;;;;;13.10;3.83;;;8.40;54.00;;;;;;5047268;28;20041;-65
2021/03/18 13:10:20;;;;;;;10.02;3.55;;;8.40;55.10;;;;;;5045822;28;20069;-64
2021/03/18 13:12:47;;;;;;;12.68;4.22;;;8.50;55.00;;;;;;5046191;28;20046;-63